1862 Hurricane NOT_NAMED (1862275N12308)


IBTrACS version v04r00. Visit IBTrACS website for data access.
Please direct all questions to the IBTrACS Q and A forum

Storm track - Intensity - Wind Radii - Intensity Data - Source Data - All data

Summary Information

Storm ID 1862275N12308
Start Oct 1 12Z
Max Intensity 75 kt (Oct 2 18Z), 981 mb (Oct 16 00Z)
End Oct 16 18Z
ATCF IDs
Track status Best track data.

Storm track plot

Map of storm track

Intensity plots

Map of storm track

Radial wind information

No radial wind information for this storm


Position and Intensity Table

BASIN ISO_TIME_________ NATURE LAT LON MLC WIND MLC PRES
degrees north degrees east kts mb
NA 1862-10-01 12:00:00 TS 12.20 -52.50 30
NA 15:00:00 TS 12.30 -52.91 35
NA 18:00:00 TS 12.40 -53.30 40
NA 21:00:00 TS 12.50 -53.65 45
NA 1862-10-02 00:00:00 TS 12.60 -54.00 50
NA 03:00:00 TS 12.70 -54.40 55
NA 06:00:00 TS 12.80 -54.80 60
NA 09:00:00 TS 12.90 -55.14 65
NA 12:00:00 TS 13.00 -55.50 70
NA 15:00:00 TS 13.11 -55.93 72
NA 18:00:00 TS 13.20 -56.40 75
NA 21:00:00 TS 13.26 -56.85 75
NA 1862-10-03 00:00:00 TS 13.30 -57.30 75
NA 03:00:00 TS 13.35 -57.76 72
NA 06:00:00 TS 13.40 -58.20 70
NA 09:00:00 TS 13.47 -58.64 67
NA 12:00:00 TS 13.50 -59.00 65
NA 15:00:00 TS 13.41 -59.20 60
NA 18:00:00 TS 13.30 -59.30 55
NA 21:00:00 TS 13.24 -59.40 52
NA 1862-10-04 00:00:00 TS 13.20 -59.50 50
NA 03:00:00 TS 13.15 -59.65 50
NA 06:00:00 TS 13.10 -59.80 50
NA 09:00:00 TS 13.02 -59.91 50
NA 12:00:00 TS 13.00 -60.00 50
NA 15:00:00 TS 13.09 -60.11 50
NA 18:00:00 TS 13.30 -60.20 50
NA 21:00:00 TS 13.63 -60.26 47
NA 1862-10-05 00:00:00 TS 14.00 -60.30 45
NA 03:00:00 TS 14.26 -60.35 45
NA 06:00:00 TS 14.50 -60.40 45
NA 09:00:00 TS 14.76 -60.42 45
NA 12:00:00 TS 15.00 -60.50 45
NA 15:00:00 TS 15.21 -60.73 45
NA 18:00:00 TS 15.40 -61.00 45
NA 21:00:00 TS 15.60 -61.20 45
NA 1862-10-06 00:00:00 TS 15.80 -61.40 45
NA 03:00:00 TS 16.01 -61.65 45
NA 06:00:00 TS 16.20 -61.90 45
NA 09:00:00 TS 16.35 -62.12 45
NA 12:00:00 TS 16.50 -62.30 45
NA 15:00:00 TS 16.69 -62.47 42
NA 18:00:00 TS 16.90 -62.60 40
NA 21:00:00 TS 17.10 -62.70 40
NA 1862-10-07 00:00:00 TS 17.30 -62.80 40
NA 03:00:00 TS 17.51 -62.95 40
NA 06:00:00 TS 17.70 -63.10 40
NA 09:00:00 TS 17.86 -63.22 37
NA 12:00:00 TS 18.00 -63.30 35
NA 15:00:00 TS 18.11 -63.37 32
NA 18:00:00 TS 18.20 -63.40 30
NA 21:00:00 TS 18.30 -63.40 30
NA 1862-10-08 00:00:00 TS 18.40 -63.40 30
NA 03:00:00 TS 18.51 -63.45 30
NA 06:00:00 TS 18.60 -63.50 30
NA 09:00:00 TS 18.63 -63.49 30
NA 12:00:00 TS 18.70 -63.50 30
NA 15:00:00 TS 18.93 -63.59 30
NA 18:00:00 TS 19.20 -63.70 30
NA 21:00:00 TS 19.40 -63.76 30
NA 1862-10-09 00:00:00 TS 19.60 -63.80 30
NA 03:00:00 TS 19.85 -63.85 30
NA 06:00:00 TS 20.10 -63.90 30
NA 09:00:00 TS 20.31 -63.94 30
NA 12:00:00 TS 20.50 -64.00 30
NA 15:00:00 TS 20.70 -64.09 30
NA 18:00:00 TS 20.90 -64.20 30
NA 21:00:00 TS 21.10 -64.30 30
NA 1862-10-10 00:00:00 TS 21.30 -64.40 30
NA 03:00:00 TS 21.51 -64.50 30
NA 06:00:00 TS 21.70 -64.60 30
NA 09:00:00 TS 21.84 -64.70 30
NA 12:00:00 TS 22.00 -64.80 30
NA 15:00:00 TS 22.23 -64.90 30
NA 18:00:00 TS 22.50 -65.00 30
NA 21:00:00 TS 22.75 -65.10 30
NA 1862-10-11 00:00:00 TS 23.00 -65.20 30
NA 03:00:00 TS 23.25 -65.31 30
NA 06:00:00 TS 23.50 -65.40 30
NA 09:00:00 TS 23.75 -65.45 30
NA 12:00:00 TS 24.00 -65.50 30
NA 15:00:00 TS 24.26 -65.60 30
NA 18:00:00 TS 24.50 -65.70 30
NA 21:00:00 TS 24.70 -65.76 30
NA 1862-10-12 00:00:00 TS 24.90 -65.80 30
NA 03:00:00 TS 25.15 -65.85 30
NA 06:00:00 TS 25.40 -65.90 30
NA 09:00:00 TS 25.60 -65.95 30
NA 12:00:00 TS 25.80 -66.00 30
NA 15:00:00 TS 26.05 -66.05 30
NA 18:00:00 TS 26.30 -66.10 30
NA 21:00:00 TS 26.50 -66.15 30
NA 1862-10-13 00:00:00 TS 26.70 -66.20 30
NA 03:00:00 TS 26.94 -66.26 32
NA 06:00:00 TS 27.20 -66.30 35
NA 09:00:00 TS 27.45 -66.30 37
NA 12:00:00 TS 27.70 -66.30 40
NA 15:00:00 TS 27.96 -66.35 42
NA 18:00:00 TS 28.20 -66.40 45
NA 21:00:00 TS 28.40 -66.40 47
NA 1862-10-14 00:00:00 TS 28.60 -66.40 50
NA 03:00:00 TS 28.85 -66.45 52
NA 06:00:00 TS 29.10 -66.50 55
NA 09:00:00 TS 29.30 -66.51 57
NA 12:00:00 TS 29.50 -66.50 60
NA 15:00:00 TS 29.75 -66.50 62
NA 18:00:00 TS 30.00 -66.50 65
NA 21:00:00 TS 30.20 -66.51 65
NA 1862-10-15 00:00:00 TS 30.40 -66.50 65
NA 03:00:00 TS 30.65 -66.46 67
NA 06:00:00 TS 30.90 -66.40 70
NA 09:00:00 TS 31.05 -66.35 70
NA 12:00:00 TS 31.30 -66.30 70
NA 15:00:00 TS 31.80 -66.29 72
NA 18:00:00 TS 32.50 -66.20 75
NA 21:00:00 TS 33.13 -66.04 75
NA 1862-10-16 00:00:00 TS 34.20 -65.60 75 981
NA 03:00:00 TS 36.08 -64.76 70
NA 06:00:00 TS 38.30 -63.50 65
NA 09:00:00 TS 40.40 -61.97 57
NA 12:00:00 TS 42.30 -60.00 50
NA 15:00:00 TS 43.79 -57.63 45
NA 18:00:00 ET 45.00 -55.00 40

Source Information

Agency Information
USA
TOKYO
CMA
HKO
NEWDELHI
REUNION
BOM
NADI
WELLINGTON
DS824
TD9636
TD9635
NEUMANN
MLC

All available IBTrACS Data

SEASON BASIN SUBBASIN ISO_TIME_________ NATURE LAT LON DIST2LAND LANDFALL IFLAG USA SSHS MLC LAT MLC LON MLC CLASS MLC WIND MLC PRES STORM SPEED STORM DIR
Year degrees north degrees east km km 1 degrees north degrees east kts mb kts degrees
1862 NA NA 1862-10-01 12:00:00 TS 12.20 -52.50 730 724 _____________O -1 12.20 -52.50 TD 30 8 284
1862 NA NA 15:00:00 TS 12.30 -52.91 731 727 _____________P -1 12.30 -52.91 TD 35 8 284
1862 NA NA 18:00:00 TS 12.40 -53.30 734 732 _____________O -1 12.40 -53.30 TS 40 7 285
1862 NA NA 21:00:00 TS 12.50 -53.65 741 740 _____________P -1 12.50 -53.65 TS 45 7 286
1862 NA NA 1862-10-02 00:00:00 TS 12.60 -54.00 750 728 _____________O -1 12.60 -54.00 TS 50 8 285
1862 NA NA 03:00:00 TS 12.70 -54.40 728 707 _____________P -1 12.70 -54.40 TS 55 8 284
1862 NA NA 06:00:00 TS 12.80 -54.80 707 688 _____________O -1 12.80 -54.80 TS 60 8 285
1862 NA NA 09:00:00 TS 12.90 -55.14 688 651 _____________P -1 12.90 -55.14 TS 65 7 286
1862 NA NA 12:00:00 TS 13.00 -55.50 651 616 _____________O -1 13.00 -55.50 HU 70 8 285
1862 NA NA 15:00:00 TS 13.11 -55.93 616 573 _____________P -1 13.11 -55.93 HU 72 9 283
1862 NA NA 18:00:00 TS 13.20 -56.40 573 536 _____________O -1 13.20 -56.40 HU 75 9 280
1862 NA NA 21:00:00 TS 13.26 -56.85 532 496 _____________P -1 13.26 -56.85 HU 75 9 277
1862 NA NA 1862-10-03 00:00:00 TS 13.30 -57.30 496 462 _____________O -1 13.30 -57.30 HU 75 9 276
1862 NA NA 03:00:00 TS 13.35 -57.76 453 429 _____________P -1 13.35 -57.76 HU 72 9 277
1862 NA NA 06:00:00 TS 13.40 -58.20 429 406 _____________O -1 13.40 -58.20 HU 70 9 278
1862 NA NA 09:00:00 TS 13.47 -58.64 408 381 _____________P -1 13.47 -58.64 HU 67 8 277
1862 NA NA 12:00:00 TS 13.50 -59.00 381 360 _____________O -1 13.50 -59.00 HU 65 5 264
1862 NA NA 15:00:00 TS 13.41 -59.20 360 344 _____________P -1 13.41 -59.20 HU 60 4 236
1862 NA CS 18:00:00 TS 13.30 -59.30 344 329 _____________O -1 13.30 -59.30 TS 55 3 229
1862 NA CS 21:00:00 TS 13.24 -59.40 329 324 _____________P -1 13.24 -59.40 TS 52 2 243
1862 NA CS 1862-10-04 00:00:00 TS 13.20 -59.50 324 318 _____________O -1 13.20 -59.50 TS 50 3 249
1862 NA CS 03:00:00 TS 13.15 -59.65 318 298 _____________P -1 13.15 -59.65 TS 50 3 251
1862 NA CS 06:00:00 TS 13.10 -59.80 298 284 _____________O -1 13.10 -59.80 TS 50 3 243
1862 NA CS 09:00:00 TS 13.02 -59.91 284 279 _____________P -1 13.02 -59.91 TS 50 2 243
1862 NA CS 12:00:00 TS 13.00 -60.00 279 275 _____________O -1 13.00 -60.00 TS 50 2 290
1862 NA CS 15:00:00 TS 13.09 -60.11 286 286 _____________P -1 13.09 -60.11 TS 50 4 327
1862 NA CS 18:00:00 TS 13.30 -60.20 303 303 _____________O -1 13.30 -60.20 TS 50 6 345
1862 NA CS 21:00:00 TS 13.63 -60.26 333 333 _____________P -1 13.63 -60.26 TS 47 7 352
1862 NA CS 1862-10-05 00:00:00 TS 14.00 -60.30 377 377 _____________O -1 14.00 -60.30 TS 45 6 352
1862 NA CS 03:00:00 TS 14.26 -60.35 408 408 _____________P -1 14.26 -60.35 TS 45 5 349
1862 NA CS 06:00:00 TS 14.50 -60.40 430 430 _____________O -1 14.50 -60.40 TS 45 5 352
1862 NA CS 09:00:00 TS 14.76 -60.42 463 463 _____________P -1 14.76 -60.42 TS 45 5 349
1862 NA CS 12:00:00 TS 15.00 -60.50 484 484 _____________O -1 15.00 -60.50 TS 45 5 327
1862 NA CS 15:00:00 TS 15.21 -60.73 504 504 _____________P -1 15.21 -60.73 TS 45 6 310
1862 NA CS 18:00:00 TS 15.40 -61.00 526 526 _____________O -1 15.40 -61.00 TS 45 6 311
1862 NA CS 21:00:00 TS 15.60 -61.20 548 521 _____________P -1 15.60 -61.20 TS 45 6 316
1862 NA CS 1862-10-06 00:00:00 TS 15.80 -61.40 521 491 _____________O -1 15.80 -61.40 TS 45 6 313
1862 NA CS 03:00:00 TS 16.01 -61.65 491 452 _____________P -1 16.01 -61.65 TS 45 6 310
1862 NA CS 06:00:00 TS 16.20 -61.90 452 428 _____________O -1 16.20 -61.90 TS 45 6 308
1862 NA CS 09:00:00 TS 16.35 -62.12 428 398 _____________P -1 16.35 -62.12 TS 45 5 308
1862 NA CS 12:00:00 TS 16.50 -62.30 398 369 _____________O -1 16.50 -62.30 TS 45 5 316
1862 NA CS 15:00:00 TS 16.69 -62.47 369 349 _____________P -1 16.69 -62.47 TS 42 5 324
1862 NA CS 18:00:00 TS 16.90 -62.60 349 331 _____________O -1 16.90 -62.60 TS 40 5 331
1862 NA CS 21:00:00 TS 17.10 -62.70 331 313 _____________P -1 17.10 -62.70 TS 40 4 335
1862 NA CS 1862-10-07 00:00:00 TS 17.30 -62.80 313 296 _____________O -1 17.30 -62.80 TS 40 5 330
1862 NA CS 03:00:00 TS 17.51 -62.95 296 270 _____________P -1 17.51 -62.95 TS 40 5 325
1862 NA CS 06:00:00 TS 17.70 -63.10 270 255 _____________O -1 17.70 -63.10 TS 40 4 325
1862 NA CS 09:00:00 TS 17.86 -63.22 255 244 _____________P -1 17.86 -63.22 TS 37 4 328
1862 NA CS 12:00:00 TS 18.00 -63.30 244 232 _____________O -1 18.00 -63.30 TS 35 3 329
1862 NA CS 15:00:00 TS 18.11 -63.37 232 232 _____________P -1 18.11 -63.37 TS 32 2 333
1862 NA CS 18:00:00 TS 18.20 -63.40 232 232 _____________O -1 18.20 -63.40 TD 30 2 347
1862 NA CS 21:00:00 TS 18.30 -63.40 232 232 _____________P -1 18.30 -63.40 TD 30 2 8
1862 NA CS 1862-10-08 00:00:00 TS 18.40 -63.40 232 232 _____________O -1 18.40 -63.40 TD 30 2 347
1862 NA CS 03:00:00 TS 18.51 -63.45 232 221 _____________P -1 18.51 -63.45 TD 30 2 333
1862 NA CS 06:00:00 TS 18.60 -63.50 222 222 _____________O -1 18.60 -63.50 TD 30 1 344
1862 NA CS 09:00:00 TS 18.63 -63.49 222 222 _____________P -1 18.63 -63.49 TD 30 1 0
1862 NA CS 12:00:00 TS 18.70 -63.50 223 215 _____________O -1 18.70 -63.50 TD 30 3 341
1862 NA CS 15:00:00 TS 18.93 -63.59 218 214 _____________P -1 18.93 -63.59 TD 30 5 339
1862 NA NA 18:00:00 TS 19.20 -63.70 219 219 _____________O -1 19.20 -63.70 TD 30 5 341
1862 NA NA 21:00:00 TS 19.40 -63.76 219 219 _____________P -1 19.40 -63.76 TD 30 4 347
1862 NA NA 1862-10-09 00:00:00 TS 19.60 -63.80 232 232 _____________O -1 19.60 -63.80 TD 30 5 349
1862 NA NA 03:00:00 TS 19.85 -63.85 252 245 _____________P -1 19.85 -63.85 TD 30 5 349
1862 NA NA 06:00:00 TS 20.10 -63.90 260 260 _____________O -1 20.10 -63.90 TD 30 5 349
1862 NA NA 09:00:00 TS 20.31 -63.94 277 270 _____________P -1 20.31 -63.94 TD 30 4 347
1862 NA NA 12:00:00 TS 20.50 -64.00 288 288 _____________O -1 20.50 -64.00 TD 30 4 340
1862 NA NA 15:00:00 TS 20.70 -64.09 301 301 _____________P -1 20.70 -64.09 TD 30 4 335
1862 NA NA 18:00:00 TS 20.90 -64.20 315 315 _____________O -1 20.90 -64.20 TD 30 4 334
1862 NA NA 21:00:00 TS 21.10 -64.30 331 331 _____________P -1 21.10 -64.30 TD 30 4 335
1862 NA NA 1862-10-10 00:00:00 TS 21.30 -64.40 347 347 _____________O -1 21.30 -64.40 TD 30 5 336
1862 NA NA 03:00:00 TS 21.51 -64.50 365 365 _____________P -1 21.51 -64.50 TD 30 4 335
1862 NA NA 06:00:00 TS 21.70 -64.60 383 383 _____________O -1 21.70 -64.60 TD 30 4 331
1862 NA NA 09:00:00 TS 21.84 -64.70 391 391 _____________P -1 21.84 -64.70 TD 30 4 329
1862 NA NA 12:00:00 TS 22.00 -64.80 411 411 _____________O -1 22.00 -64.80 TD 30 4 335
1862 NA NA 15:00:00 TS 22.23 -64.90 431 431 _____________P -1 22.23 -64.90 TD 30 5 340
1862 NA NA 18:00:00 TS 22.50 -65.00 462 462 _____________O -1 22.50 -65.00 TD 30 6 340
1862 NA NA 21:00:00 TS 22.75 -65.10 483 483 _____________P -1 22.75 -65.10 TD 30 5 340
1862 NA NA 1862-10-11 00:00:00 TS 23.00 -65.20 516 516 _____________O -1 23.00 -65.20 TD 30 5 339
1862 NA NA 03:00:00 TS 23.25 -65.31 548 548 _____________P -1 23.25 -65.31 TD 30 5 340
1862 NA NA 06:00:00 TS 23.50 -65.40 570 570 _____________O -1 23.50 -65.40 TD 30 5 345
1862 NA NA 09:00:00 TS 23.75 -65.45 592 592 _____________P -1 23.75 -65.45 TD 30 5 350
1862 NA NA 12:00:00 TS 24.00 -65.50 626 626 _____________O -1 24.00 -65.50 TD 30 5 345
1862 NA NA 15:00:00 TS 24.26 -65.60 659 659 _____________P -1 24.26 -65.60 TD 30 5 340
1862 NA NA 18:00:00 TS 24.50 -65.70 682 682 _____________O -1 24.50 -65.70 TD 30 5 342
1862 NA NA 21:00:00 TS 24.70 -65.76 703 703 _____________P -1 24.70 -65.76 TD 30 4 348
1862 NA NA 1862-10-12 00:00:00 TS 24.90 -65.80 722 722 _____________O -1 24.90 -65.80 TD 30 5 350
1862 NA NA 03:00:00 TS 25.15 -65.85 751 746 _____________P -1 25.15 -65.85 TD 30 5 350
1862 NA NA 06:00:00 TS 25.40 -65.90 766 766 _____________O -1 25.40 -65.90 TD 30 5 349
1862 NA NA 09:00:00 TS 25.60 -65.95 781 781 _____________P -1 25.60 -65.95 TD 30 4 348
1862 NA NA 12:00:00 TS 25.80 -66.00 801 801 _____________O -1 25.80 -66.00 TD 30 5 349
1862 NA NA 15:00:00 TS 26.05 -66.05 831 817 _____________P -1 26.05 -66.05 TD 30 5 350
1862 NA NA 18:00:00 TS 26.30 -66.10 848 848 _____________O -1 26.30 -66.10 TD 30 5 349
1862 NA NA 21:00:00 TS 26.50 -66.15 863 863 _____________P -1 26.50 -66.15 TD 30 4 348
1862 NA NA 1862-10-13 00:00:00 TS 26.70 -66.20 883 883 _____________O -1 26.70 -66.20 TD 30 5 348
1862 NA NA 03:00:00 TS 26.94 -66.26 899 899 _____________P -1 26.94 -66.26 TD 32 5 350
1862 NA NA 06:00:00 TS 27.20 -66.30 929 929 _____________O -1 27.20 -66.30 TS 35 5 355
1862 NA NA 09:00:00 TS 27.45 -66.30 959 949 _____________P -1 27.45 -66.30 TS 37 5 2
1862 NA NA 12:00:00 TS 27.70 -66.30 980 980 _____________O -1 27.70 -66.30 TS 40 5 355
1862 NA NA 15:00:00 TS 27.96 -66.35 1011 1007 _____________P -1 27.96 -66.35 TS 42 5 350
1862 NA NA 18:00:00 TS 28.20 -66.40 1027 1027 _____________O -1 28.20 -66.40 TS 45 4 355
1862 NA NA 21:00:00 TS 28.40 -66.40 1043 1043 _____________P -1 28.40 -66.40 TS 47 4 0
1862 NA NA 1862-10-14 00:00:00 TS 28.60 -66.40 1060 1060 _____________O -1 28.60 -66.40 TS 50 5 356
1862 NA NA 03:00:00 TS 28.85 -66.45 1086 1080 _____________P -1 28.85 -66.45 TS 52 5 350
1862 NA NA 06:00:00 TS 29.10 -66.50 1097 1097 _____________O -1 29.10 -66.50 TS 55 5 354
1862 NA NA 09:00:00 TS 29.30 -66.51 1110 1094 _____________P -1 29.30 -66.51 TS 57 4 0
1862 NA NA 12:00:00 TS 29.50 -66.50 1094 1080 _____________O -1 29.50 -66.50 TS 60 5 0
1862 NA NA 15:00:00 TS 29.75 -66.50 1072 1058 _____________P -1 29.75 -66.50 TS 62 5 2
1862 NA NA 18:00:00 TS 30.00 -66.50 1058 1044 _____________O -1 30.00 -66.50 HU 65 5 0
1862 NA NA 21:00:00 TS 30.20 -66.51 1044 1030 _____________P -1 30.20 -66.51 HU 65 4 0
1862 NA NA 1862-10-15 00:00:00 TS 30.40 -66.50 1030 1016 _____________O -1 30.40 -66.50 HU 65 5 4
1862 NA NA 03:00:00 TS 30.65 -66.46 1009 1004 _____________P -1 30.65 -66.46 HU 67 5 10
1862 NA NA 06:00:00 TS 30.90 -66.40 1004 997 _____________O -1 30.90 -66.40 HU 70 4 13
1862 NA NA 09:00:00 TS 31.05 -66.35 1005 987 _____________P -1 31.05 -66.35 HU 70 4 12
1862 NA NA 12:00:00 TS 31.30 -66.30 987 957 _____________O -1 31.30 -66.30 HU 70 8 4
1862 NA NA 15:00:00 TS 31.80 -66.29 957 929 _____________P -1 31.80 -66.29 HU 72 12 4
1862 NA NA 18:00:00 TS 32.50 -66.20 929 910 _____________O -1 32.50 -66.20 HU 75 13 9
1862 NA NA 21:00:00 TS 33.13 -66.04 919 907 _____________P -1 33.13 -66.04 HU 75 18 16
1862 NA NA 1862-10-16 00:00:00 TS 34.20 -65.60 916 777 _____________O -1 34.20 -65.60 HU 75 981 31 20
1862 NA NA 03:00:00 TS 36.08 -64.76 767 606 _____________P -1 36.08 -64.76 HU 70 44 22
1862 NA NA 06:00:00 TS 38.30 -63.50 597 443 _____________O -1 38.30 -63.50 HU 65 49 27
1862 NA NA 09:00:00 TS 40.40 -61.97 439 342 _____________P -1 40.40 -61.97 HU 57 48 34
1862 NA NA 12:00:00 TS 42.30 -60.00 334 286 _____________O -1 42.30 -60.00 TS 50 47 43
1862 NA NA 15:00:00 TS 43.79 -57.63 296 213 _____________P -1 43.79 -57.63 TS 45 45 53
1862 NA NA 18:00:00 ET 45.00 -55.00 207 _____________O -1 45.00 -55.00 EX 40 44 57